Time;durP1;ratioP1;P1;durP2;ratioP2;P2;SDS_P1;SDS_P2;PMS_P1;PMS_P2;Temp;Humidity;BMP_temperature;BMP_pressure;BME280_temperature;BME280_humidity;BME280_pressure;Samples;Min_cycle;Max_cycle;Signal;HPM_P1;HPM_P2
2022/01/29 00:00:09;;;;;;;14.00;10.63;;;5.30;99.90;;;;;;5074693;28;20669;-69
2022/01/29 00:02:38;;;;;;;16.65;10.25;;;5.30;99.90;;;;;;5074673;28;20202;-69
2022/01/29 00:05:05;;;;;;;14.95;10.50;;;5.30;99.90;;;;;;5074487;28;20215;-68
2022/01/29 00:07:32;;;;;;;13.85;10.43;;;5.30;99.90;;;;;;5074673;28;20279;-68
2022/01/29 00:10:03;;;;;;;14.05;10.13;;;5.30;99.90;;;;;;5073488;28;20297;-69
2022/01/29 00:12:30;;;;;;;14.50;10.25;;;5.30;99.90;;;;;;5074084;28;20203;-69
2022/01/29 00:14:57;;;;;;;16.42;10.98;;;5.20;99.90;;;;;;5074492;28;20245;-68
2022/01/29 00:17:24;;;;;;;14.43;10.57;;;5.20;99.90;;;;;;5074252;28;20211;-68
2022/01/29 00:19:52;;;;;;;14.20;10.70;;;5.20;99.90;;;;;;5074143;28;20199;-68
2022/01/29 00:22:19;;;;;;;15.90;10.18;;;5.20;99.90;;;;;;5073986;28;20637;-68
2022/01/29 00:24:46;;;;;;;14.10;10.90;;;5.20;99.90;;;;;;5074000;28;20581;-68
2022/01/29 00:27:13;;;;;;;14.63;10.20;;;5.20;99.90;;;;;;5074544;28;20289;-68
2022/01/29 00:29:42;;;;;;;11.30;8.50;;;5.20;99.90;;;;;;5073884;28;20214;-69
2022/01/29 00:32:10;;;;;;;14.85;9.95;;;5.20;99.90;;;;;;5073566;28;20211;-68
2022/01/29 00:34:37;;;;;;;10.75;8.77;;;5.30;99.90;;;;;;5073391;28;20222;-68
2022/01/29 00:37:06;;;;;;;12.57;9.32;;;5.20;99.90;;;;;;5073503;28;20206;-68
2022/01/29 00:39:33;;;;;;;13.00;9.60;;;5.20;99.90;;;;;;5073820;28;20233;-67
2022/01/29 00:42:00;;;;;;;14.48;9.10;;;5.20;99.90;;;;;;5073546;28;20241;-67
2022/01/29 00:44:27;;;;;;;13.25;8.57;;;5.10;99.90;;;;;;5073299;28;20222;-67
2022/01/29 00:46:54;;;;;;;12.20;8.75;;;5.10;99.90;;;;;;5073351;28;20234;-66
2022/01/29 00:49:20;;;;;;;10.70;7.60;;;5.10;99.90;;;;;;5073513;28;20576;-66
2022/01/29 00:51:47;;;;;;;11.45;8.40;;;5.10;99.90;;;;;;5073352;28;20210;-66
2022/01/29 00:54:15;;;;;;;11.77;8.10;;;5.10;99.90;;;;;;5073122;28;20908;-66
2022/01/29 00:56:42;;;;;;;12.20;8.82;;;5.10;99.90;;;;;;5073093;28;20213;-66
2022/01/29 00:59:09;;;;;;;9.98;8.45;;;5.10;99.90;;;;;;5073855;28;20291;-66
2022/01/29 01:01:36;;;;;;;12.30;8.43;;;5.10;99.90;;;;;;5074205;28;20205;-66
2022/01/29 01:04:02;;;;;;;11.85;8.05;;;5.10;99.90;;;;;;5073531;28;20218;-66
2022/01/29 01:06:29;;;;;;;11.50;8.38;;;5.10;99.90;;;;;;5073640;28;20298;-66
2022/01/29 01:08:56;;;;;;;11.45;8.38;;;5.10;99.90;;;;;;5073866;28;20691;-66
2022/01/29 01:11:24;;;;;;;11.70;8.13;;;5.10;99.90;;;;;;5074408;28;20324;-67
2022/01/29 01:13:51;;;;;;;10.70;7.78;;;5.10;99.90;;;;;;5073366;28;20314;-66
2022/01/29 01:16:18;;;;;;;10.55;7.82;;;5.10;99.90;;;;;;5074769;28;20198;-68
2022/01/29 01:18:45;;;;;;;11.35;8.10;;;5.10;99.90;;;;;;5075076;28;20214;-68
2022/01/29 01:21:11;;;;;;;12.52;8.20;;;5.20;99.90;;;;;;5073755;28;20665;-68
2022/01/29 01:23:38;;;;;;;12.60;9.27;;;5.20;99.90;;;;;;5074223;28;20653;-67
2022/01/29 01:26:06;;;;;;;9.93;8.55;;;5.20;99.90;;;;;;5074910;28;20289;-67
2022/01/29 01:28:35;;;;;;;11.15;7.70;;;5.20;99.90;;;;;;5074588;28;20206;-67
2022/01/29 01:31:01;;;;;;;9.90;7.75;;;5.20;99.90;;;;;;5073906;28;20293;-68
2022/01/29 01:33:28;;;;;;;11.38;7.97;;;5.30;99.90;;;;;;5074180;28;20203;-68
2022/01/29 01:35:59;;;;;;;12.25;8.82;;;5.30;99.90;;;;;;5073880;28;20297;-68
2022/01/29 01:38:34;;;;;;;9.77;8.07;;;5.30;99.90;;;;;;5074206;28;20214;-68
2022/01/29 01:41:05;;;;;;;12.52;8.13;;;5.30;99.90;;;;;;5074026;28;20237;-67
2022/01/29 01:43:34;;;;;;;11.32;8.18;;;5.30;99.90;;;;;;5074006;28;20276;-67
2022/01/29 01:46:01;;;;;;;12.00;8.80;;;5.40;99.90;;;;;;5073959;28;20203;-67
2022/01/29 01:48:28;;;;;;;11.18;8.23;;;5.40;99.90;;;;;;5074045;28;20203;-68
2022/01/29 01:50:55;;;;;;;13.20;8.00;;;5.40;99.90;;;;;;5074215;28;20211;-68
2022/01/29 01:53:22;;;;;;;9.73;7.57;;;5.40;99.90;;;;;;5074093;28;20205;-67
2022/01/29 01:55:49;;;;;;;10.88;7.95;;;5.50;99.90;;;;;;5073849;28;20218;-68
2022/01/29 01:58:17;;;;;;;11.25;7.90;;;5.50;99.90;;;;;;5073735;28;20751;-67
2022/01/29 02:00:45;;;;;;;10.10;8.20;;;5.50;99.90;;;;;;5073628;28;20202;-67
2022/01/29 02:03:12;;;;;;;8.70;7.72;;;5.50;99.90;;;;;;5074034;28;20208;-68
2022/01/29 02:05:39;;;;;;;9.32;7.68;;;5.50;99.90;;;;;;5074317;28;20576;-68
2022/01/29 02:08:07;;;;;;;10.05;8.30;;;5.50;99.90;;;;;;5074311;28;20207;-68
2022/01/29 02:10:34;;;;;;;10.73;8.00;;;5.60;99.90;;;;;;5073755;28;20203;-67
2022/01/29 02:13:03;;;;;;;12.02;7.65;;;5.60;99.90;;;;;;5073921;28;20205;-67
2022/01/29 02:15:30;;;;;;;9.65;6.53;;;5.70;99.90;;;;;;5073965;28;20590;-67
2022/01/29 02:17:59;;;;;;;11.05;8.23;;;5.70;99.90;;;;;;5073837;28;20210;-68
2022/01/29 02:20:28;;;;;;;11.38;8.25;;;5.60;99.90;;;;;;5073731;28;20202;-67
2022/01/29 02:22:57;;;;;;;10.68;7.50;;;5.60;99.90;;;;;;5074039;28;20212;-68
2022/01/29 02:25:36;;;;;;;11.38;8.10;;;5.70;99.90;;;;;;5073674;28;20250;-68
2022/01/29 02:28:05;;;;;;;9.75;7.70;;;5.70;99.90;;;;;;5073874;28;20209;-67
2022/01/29 02:30:34;;;;;;;12.25;7.75;;;5.70;99.90;;;;;;5073416;28;20294;-68
2022/01/29 02:33:04;;;;;;;9.05;7.53;;;5.70;99.90;;;;;;5073718;28;20230;-67
2022/01/29 02:35:31;;;;;;;10.35;7.68;;;5.60;99.90;;;;;;5077188;28;20715;-68
2022/01/29 02:37:59;;;;;;;9.93;7.90;;;5.70;99.90;;;;;;5077589;28;20597;-68
2022/01/29 02:40:26;;;;;;;8.75;6.85;;;5.70;99.90;;;;;;5077108;28;20207;-68
2022/01/29 02:42:55;;;;;;;9.10;7.30;;;5.70;99.90;;;;;;5077247;28;20202;-67
2022/01/29 02:45:22;;;;;;;9.98;8.05;;;5.70;99.90;;;;;;5077275;28;20218;-67
2022/01/29 02:47:49;;;;;;;8.77;6.97;;;5.50;99.90;;;;;;5077327;28;20210;-67
2022/01/29 02:50:15;;;;;;;10.02;6.80;;;5.50;99.90;;;;;;5076907;28;20199;-67
2022/01/29 02:52:42;;;;;;;9.38;7.30;;;5.50;99.90;;;;;;5077341;28;20202;-67
2022/01/29 02:55:11;;;;;;;9.10;7.03;;;5.30;99.90;;;;;;5077089;28;20226;-67
2022/01/29 02:57:37;;;;;;;8.40;7.13;;;5.30;99.90;;;;;;5077012;28;20206;-68
2022/01/29 03:00:10;;;;;;;11.35;8.05;;;5.20;99.90;;;;;;5076791;28;20209;-67
2022/01/29 03:02:37;;;;;;;9.88;7.50;;;5.20;99.90;;;;;;5077009;28;20217;-67
2022/01/29 03:05:04;;;;;;;9.93;7.72;;;5.20;99.90;;;;;;5077537;28;20314;-67
2022/01/29 03:07:31;;;;;;;9.50;7.50;;;5.30;99.90;;;;;;5076921;28;20246;-67
2022/01/29 03:09:58;;;;;;;10.60;7.95;;;5.30;99.90;;;;;;5077164;28;20264;-67
2022/01/29 03:12:26;;;;;;;8.68;7.20;;;5.40;99.90;;;;;;5076865;28;20294;-67
2022/01/29 03:14:53;;;;;;;9.43;7.68;;;5.30;99.90;;;;;;5076531;28;20223;-68
2022/01/29 03:17:20;;;;;;;9.48;7.38;;;5.40;99.90;;;;;;5077313;28;20211;-67
2022/01/29 03:19:47;;;;;;;9.80;7.05;;;5.40;99.90;;;;;;5076623;28;20207;-67
2022/01/29 03:22:13;;;;;;;8.30;6.90;;;5.40;99.90;;;;;;5076569;28;20207;-67
2022/01/29 03:24:40;;;;;;;10.77;7.35;;;5.30;99.90;;;;;;5076698;28;20244;-67
2022/01/29 03:27:07;;;;;;;9.25;6.90;;;5.30;99.90;;;;;;5076699;28;20293;-67
2022/01/29 03:29:35;;;;;;;8.77;6.95;;;5.20;99.90;;;;;;5076363;28;20675;-67
2022/01/29 03:32:02;;;;;;;8.98;6.82;;;5.20;99.90;;;;;;5076304;28;20198;-67
2022/01/29 03:34:29;;;;;;;7.43;6.30;;;5.20;99.90;;;;;;5076235;28;20219;-67
2022/01/29 03:36:56;;;;;;;8.77;6.90;;;5.20;99.90;;;;;;5076448;28;20230;-67
2022/01/29 03:39:25;;;;;;;9.98;7.75;;;5.00;99.90;;;;;;5076386;28;20202;-67
2022/01/29 03:41:52;;;;;;;11.05;7.90;;;4.90;99.90;;;;;;5076138;28;20280;-67
2022/01/29 03:44:20;;;;;;;10.27;7.00;;;5.00;99.90;;;;;;5076036;28;20625;-67
2022/01/29 03:46:48;;;;;;;10.18;8.15;;;5.00;99.90;;;;;;5076530;28;20234;-67
2022/01/29 03:49:15;;;;;;;9.98;8.25;;;5.10;99.90;;;;;;5076159;28;20285;-67
2022/01/29 03:51:42;;;;;;;11.48;8.10;;;5.10;99.90;;;;;;5076169;28;20202;-67
2022/01/29 03:54:09;;;;;;;12.52;9.27;;;5.10;99.90;;;;;;5076107;28;20600;-67
2022/01/29 03:56:35;;;;;;;11.77;8.35;;;5.00;99.90;;;;;;5076439;28;20203;-67
2022/01/29 03:59:02;;;;;;;9.98;7.90;;;5.10;99.90;;;;;;5076263;28;20203;-67
2022/01/29 04:01:29;;;;;;;11.15;8.10;;;5.10;99.90;;;;;;5075937;28;20209;-67
2022/01/29 04:03:58;;;;;;;12.90;7.55;;;5.20;99.90;;;;;;5076085;28;20219;-67
2022/01/29 04:06:25;;;;;;;10.80;7.97;;;5.10;99.90;;;;;;5076354;28;20203;-67
2022/01/29 04:08:52;;;;;;;10.13;7.20;;;5.20;99.90;;;;;;5075834;28;20202;-67
2022/01/29 04:11:21;;;;;;;9.30;7.85;;;5.10;99.90;;;;;;5075606;28;20245;-67
2022/01/29 04:13:48;;;;;;;9.85;7.15;;;5.20;99.90;;;;;;5075409;28;20209;-67
2022/01/29 04:16:17;;;;;;;9.85;7.60;;;5.20;99.90;;;;;;5075315;28;20222;-67
2022/01/29 04:18:44;;;;;;;8.43;7.10;;;5.10;99.90;;;;;;5075508;28;20305;-67
2022/01/29 04:21:13;;;;;;;8.82;6.72;;;5.00;99.90;;;;;;5075420;28;20297;-67
2022/01/29 04:23:40;;;;;;;8.35;7.10;;;5.00;99.90;;;;;;5075473;28;20202;-67
2022/01/29 04:26:06;;;;;;;9.05;6.53;;;4.90;99.90;;;;;;5075445;28;20209;-67
2022/01/29 04:28:38;;;;;;;7.45;6.28;;;4.90;99.90;;;;;;5075475;28;20207;-67
2022/01/29 04:31:10;;;;;;;9.65;7.00;;;4.70;99.90;;;;;;5075175;28;20301;-67
2022/01/29 04:33:37;;;;;;;8.70;6.72;;;4.40;99.90;;;;;;5075157;28;20571;-67
2022/01/29 04:36:06;;;;;;;15.27;9.48;;;4.40;99.90;;;;;;5075313;28;20233;-67
2022/01/29 04:38:34;;;;;;;18.65;10.70;;;4.20;99.90;;;;;;5075419;28;20211;-67
2022/01/29 04:41:04;;;;;;;14.88;9.68;;;4.10;99.90;;;;;;5075079;28;20202;-67
2022/01/29 04:43:30;;;;;;;11.93;8.15;;;4.00;99.90;;;;;;5075551;28;20281;-67
2022/01/29 04:45:57;;;;;;;12.18;9.13;;;4.10;99.90;;;;;;5075166;28;20534;-67
2022/01/29 04:48:24;;;;;;;11.88;8.43;;;4.10;99.90;;;;;;5075012;28;20611;-67
2022/01/29 04:50:51;;;;;;;14.93;9.52;;;4.10;99.90;;;;;;5074633;28;20211;-67
2022/01/29 04:53:18;;;;;;;13.55;9.95;;;4.20;99.90;;;;;;5074759;28;20202;-67
2022/01/29 04:55:46;;;;;;;16.23;9.60;;;4.10;99.90;;;;;;5074682;28;20580;-67
2022/01/29 04:58:13;;;;;;;13.07;8.80;;;4.00;99.90;;;;;;5074322;28;20294;-67
2022/01/29 05:00:40;;;;;;;12.02;9.40;;;3.90;99.90;;;;;;5074279;28;20668;-67
2022/01/29 05:03:09;;;;;;;15.30;9.48;;;3.90;99.90;;;;;;5074728;28;20206;-67
2022/01/29 05:05:36;;;;;;;11.65;9.40;;;3.80;99.90;;;;;;5074340;28;20215;-67
2022/01/29 05:08:04;;;;;;;13.52;9.50;;;3.80;99.90;;;;;;5074350;28;20787;-67
2022/01/29 05:10:31;;;;;;;15.02;9.75;;;3.70;99.90;;;;;;5074358;28;20595;-67
2022/01/29 05:13:02;;;;;;;12.57;9.63;;;3.80;99.90;;;;;;5074397;28;20664;-67
2022/01/29 05:15:37;;;;;;;14.30;10.02;;;4.00;99.90;;;;;;5074420;28;20237;-67
2022/01/29 05:29:04;;;;;;;14.02;10.68;;;4.40;99.90;;;;;;5074204;28;20248;-67
2022/01/29 05:31:32;;;;;;;14.13;10.13;;;4.40;99.90;;;;;;5073845;28;20210;-67
2022/01/29 05:34:00;;;;;;;16.52;10.80;;;4.50;99.90;;;;;;5074431;28;20219;-67
2022/01/29 05:36:27;;;;;;;13.35;10.10;;;4.50;99.90;;;;;;5073768;28;20696;-67
2022/01/29 05:38:55;;;;;;;14.27;10.13;;;4.60;99.90;;;;;;5074135;28;20199;-67
2022/01/29 05:41:21;;;;;;;15.75;11.98;;;4.50;99.90;;;;;;5073879;28;20206;-67
2022/01/29 05:43:49;;;;;;;18.77;12.57;;;4.50;99.90;;;;;;5073931;28;20198;-67
2022/01/29 05:46:17;;;;;;;16.65;11.65;;;4.30;99.90;;;;;;5073884;28;20290;-67
2022/01/29 05:48:44;;;;;;;16.00;11.00;;;4.10;99.90;;;;;;5074000;28;20199;-67
2022/01/29 05:51:11;;;;;;;15.82;10.75;;;4.20;99.90;;;;;;5073557;28;20668;-67
2022/01/29 05:53:38;;;;;;;26.25;11.45;;;4.40;99.90;;;;;;5073852;28;20207;-67
2022/01/29 05:56:06;;;;;;;16.80;11.10;;;4.60;99.90;;;;;;5073784;28;20226;-67
2022/01/29 05:58:33;;;;;;;16.60;11.00;;;4.70;99.90;;;;;;5073591;28;20209;-67
2022/01/29 06:01:00;;;;;;;15.73;11.60;;;4.70;99.90;;;;;;5073900;28;20206;-67
2022/01/29 06:03:28;;;;;;;15.32;11.57;;;4.80;99.90;;;;;;5073717;28;20207;-67
2022/01/29 06:05:55;;;;;;;19.63;13.20;;;4.90;99.90;;;;;;5073871;28;20219;-67
2022/01/29 06:08:22;;;;;;;18.08;11.73;;;4.90;99.90;;;;;;5073858;28;20216;-67
2022/01/29 06:10:49;;;;;;;16.85;12.57;;;4.90;99.90;;;;;;5073743;28;20203;-67
2022/01/29 06:13:17;;;;;;;19.85;12.63;;;4.90;99.90;;;;;;5073788;28;20205;-67
2022/01/29 06:15:45;;;;;;;24.95;14.30;;;4.80;99.90;;;;;;5073724;28;20227;-67
2022/01/29 06:18:15;;;;;;;21.75;14.40;;;4.70;99.90;;;;;;5073666;28;20305;-67
2022/01/29 06:20:45;;;;;;;23.20;13.88;;;4.70;99.90;;;;;;5073601;28;20211;-67
2022/01/29 06:23:13;;;;;;;24.25;15.18;;;4.70;99.90;;;;;;5073436;28;20206;-67
2022/01/29 06:25:40;;;;;;;22.33;13.90;;;4.70;99.90;;;;;;5073876;28;20229;-67
2022/01/29 06:28:07;;;;;;;20.13;14.32;;;4.70;99.90;;;;;;5073848;28;20203;-67
2022/01/29 06:30:34;;;;;;;21.48;15.07;;;4.80;99.90;;;;;;5073487;28;20203;-67
2022/01/29 06:33:07;;;;;;;21.05;14.05;;;4.80;99.90;;;;;;5073566;28;20209;-67
2022/01/29 06:35:34;;;;;;;25.88;16.95;;;4.90;99.90;;;;;;5074038;28;20226;-67
2022/01/29 06:38:03;;;;;;;24.00;14.10;;;4.90;99.90;;;;;;5074732;28;20203;-66
2022/01/29 06:40:29;;;;;;;19.35;13.82;;;4.90;99.90;;;;;;5073767;28;20211;-67
2022/01/29 06:42:57;;;;;;;17.50;11.95;;;5.00;99.90;;;;;;5074061;28;20290;-67
2022/01/29 06:45:24;;;;;;;20.23;14.25;;;5.00;99.90;;;;;;5074694;28;20215;-67
2022/01/29 06:47:51;;;;;;;20.00;13.35;;;5.00;99.90;;;;;;5075269;28;20203;-67
2022/01/29 06:50:17;;;;;;;19.70;13.77;;;4.90;99.90;;;;;;5073666;28;20242;-67
2022/01/29 06:52:44;;;;;;;18.42;13.80;;;4.90;99.90;;;;;;5073771;28;20228;-67
2022/01/29 06:55:12;;;;;;;21.02;15.23;;;4.90;99.90;;;;;;5073091;28;20269;-67
2022/01/29 06:57:39;;;;;;;23.38;15.20;;;4.80;99.90;;;;;;5073354;28;20295;-67
2022/01/29 07:00:08;;;;;;;22.00;14.80;;;4.80;99.90;;;;;;5073591;28;20203;-67
2022/01/29 07:02:35;;;;;;;19.90;13.88;;;4.80;99.90;;;;;;5073880;28;20199;-67
2022/01/29 07:05:02;;;;;;;19.75;13.95;;;4.90;99.90;;;;;;5073940;28;20230;-67
2022/01/29 07:07:28;;;;;;;19.30;14.00;;;4.90;99.90;;;;;;5073132;28;20209;-67
2022/01/29 07:09:56;;;;;;;22.73;14.40;;;5.00;99.90;;;;;;5073300;28;20198;-67
2022/01/29 07:12:25;;;;;;;23.00;17.38;;;5.00;99.90;;;;;;5073250;28;20293;-66
2022/01/29 07:14:51;;;;;;;19.50;14.00;;;5.10;99.90;;;;;;5073101;28;20760;-67
2022/01/29 07:17:22;;;;;;;19.02;14.00;;;5.10;99.90;;;;;;5072722;28;20229;-67
2022/01/29 07:19:49;;;;;;;20.15;14.05;;;5.20;99.90;;;;;;5073845;28;20203;-67
2022/01/29 07:22:16;;;;;;;20.42;14.25;;;5.20;99.90;;;;;;5076904;28;20293;-67
2022/01/29 07:24:43;;;;;;;18.00;12.90;;;5.20;99.90;;;;;;5076748;28;20230;-66
2022/01/29 07:27:10;;;;;;;20.38;14.80;;;5.20;99.90;;;;;;5076708;28;20199;-66
2022/01/29 07:29:38;;;;;;;19.60;13.32;;;5.20;99.90;;;;;;5076801;28;20202;-66
2022/01/29 07:32:06;;;;;;;16.02;12.38;;;5.30;99.90;;;;;;5076527;28;20571;-66
2022/01/29 07:34:33;;;;;;;18.10;11.57;;;5.30;99.90;;;;;;5076532;28;20226;-66
2022/01/29 07:37:00;;;;;;;15.70;10.57;;;5.20;99.90;;;;;;5076407;28;20576;-66
2022/01/29 07:39:28;;;;;;;12.52;8.90;;;5.30;99.90;;;;;;5076543;28;20203;-66
2022/01/29 07:41:56;;;;;;;11.05;8.50;;;5.20;99.90;;;;;;5076168;28;20206;-66
2022/01/29 07:44:23;;;;;;;10.32;7.82;;;5.20;99.90;;;;;;5076510;28;20246;-66
2022/01/29 07:46:52;;;;;;;8.20;6.30;;;5.20;99.90;;;;;;5076428;28;20203;-66
2022/01/29 07:49:19;;;;;;;8.32;6.30;;;5.10;99.90;;;;;;5076250;28;20198;-66
2022/01/29 07:51:46;;;;;;;9.65;7.30;;;5.20;99.90;;;;;;5076139;28;20298;-66
2022/01/29 07:54:13;;;;;;;7.50;6.15;;;5.20;99.90;;;;;;5076186;28;20227;-66
2022/01/29 07:56:39;;;;;;;7.70;6.10;;;5.20;99.90;;;;;;5075736;28;20214;-66
2022/01/29 07:59:06;;;;;;;6.35;5.55;;;5.30;99.90;;;;;;5076159;28;20572;-66
2022/01/29 08:01:33;;;;;;;9.65;5.70;;;5.20;99.90;;;;;;5075905;28;20209;-66
2022/01/29 08:04:01;;;;;;;5.80;5.25;;;5.20;99.90;;;;;;5075719;28;20229;-66
2022/01/29 08:06:29;;;;;;;5.95;5.00;;;5.20;99.90;;;;;;5075838;28;20195;-66
2022/01/29 08:08:56;;;;;;;6.45;5.00;;;5.20;99.90;;;;;;5075790;28;20199;-66
2022/01/29 08:11:24;;;;;;;5.82;4.60;;;5.20;99.90;;;;;;5075525;28;20211;-66
2022/01/29 08:13:51;;;;;;;5.75;4.75;;;5.20;99.90;;;;;;5076019;28;20202;-66
2022/01/29 08:16:17;;;;;;;6.30;5.00;;;5.20;99.90;;;;;;5075686;28;20233;-66
2022/01/29 08:18:45;;;;;;;4.93;4.40;;;5.30;99.90;;;;;;5075477;28;20573;-66
2022/01/29 08:21:14;;;;;;;6.18;4.45;;;5.30;99.90;;;;;;5075485;28;20298;-66
2022/01/29 08:23:41;;;;;;;5.70;3.85;;;5.40;99.90;;;;;;5075368;28;20205;-66
2022/01/29 08:26:09;;;;;;;5.13;4.50;;;5.40;99.90;;;;;;5075274;28;20289;-66
2022/01/29 08:28:36;;;;;;;5.93;4.38;;;5.40;99.90;;;;;;5075374;28;20229;-66
2022/01/29 08:31:02;;;;;;;5.50;4.45;;;5.40;99.90;;;;;;5074426;28;20565;-66
2022/01/29 08:33:29;;;;;;;5.15;4.25;;;5.50;99.90;;;;;;5075275;28;20661;-66
2022/01/29 08:35:57;;;;;;;6.13;4.50;;;5.50;99.90;;;;;;5074900;28;20230;-66
2022/01/29 08:38:26;;;;;;;4.70;3.83;;;5.60;99.90;;;;;;5075315;28;20211;-66
2022/01/29 08:40:54;;;;;;;5.47;4.45;;;5.60;99.90;;;;;;5074912;28;20207;-66
2022/01/29 08:43:22;;;;;;;5.10;4.05;;;5.70;99.90;;;;;;5075320;28;20203;-68
2022/01/29 08:45:50;;;;;;;4.50;4.10;;;5.80;99.90;;;;;;5075224;28;20242;-66
2022/01/29 08:48:16;;;;;;;6.75;4.30;;;5.90;99.90;;;;;;5074930;28;20203;-67
2022/01/29 08:50:43;;;;;;;5.53;4.32;;;6.00;99.90;;;;;;5074820;28;20206;-66
2022/01/29 08:53:12;;;;;;;12.15;6.55;;;6.00;99.90;;;;;;5074789;28;20298;-67
2022/01/29 08:55:40;;;;;;;6.35;4.95;;;6.10;99.90;;;;;;5074969;28;20222;-66
2022/01/29 08:58:08;;;;;;;5.65;4.82;;;6.20;99.90;;;;;;5074932;28;20295;-67
2022/01/29 09:00:35;;;;;;;5.68;4.60;;;6.30;99.90;;;;;;5074710;28;20209;-67
2022/01/29 09:03:02;;;;;;;4.38;3.92;;;6.40;99.90;;;;;;5074637;28;20687;-67
2022/01/29 09:05:29;;;;;;;5.50;4.15;;;6.50;99.90;;;;;;5074608;28;20222;-67
2022/01/29 09:07:56;;;;;;;5.38;4.72;;;6.50;99.90;;;;;;5074800;28;20208;-67
2022/01/29 09:10:23;;;;;;;7.55;5.10;;;6.60;99.90;;;;;;5074535;28;20209;-67
2022/01/29 09:12:51;;;;;;;6.93;5.60;;;6.50;99.90;;;;;;5074653;28;20664;-67
2022/01/29 09:15:18;;;;;;;6.53;5.22;;;6.50;99.90;;;;;;5074518;28;20305;-67
2022/01/29 09:17:45;;;;;;;7.32;4.88;;;6.40;99.90;;;;;;5075047;28;20229;-67
2022/01/29 09:20:12;;;;;;;5.95;4.85;;;6.40;99.90;;;;;;5074484;28;20209;-67
2022/01/29 09:22:39;;;;;;;6.40;5.40;;;6.40;99.90;;;;;;5074600;28;20212;-67
2022/01/29 09:25:06;;;;;;;6.13;4.90;;;6.50;99.90;;;;;;5074933;28;20233;-67
2022/01/29 09:27:33;;;;;;;5.50;4.95;;;6.50;99.90;;;;;;5074774;28;20389;-66
2022/01/29 09:30:02;;;;;;;7.10;4.88;;;6.50;99.90;;;;;;5074374;28;20203;-67
2022/01/29 09:32:30;;;;;;;6.38;5.32;;;6.50;99.90;;;;;;5074535;28;20213;-67
2022/01/29 09:34:56;;;;;;;5.65;4.88;;;6.50;99.90;;;;;;5074184;28;20233;-67
2022/01/29 09:37:23;;;;;;;7.03;5.07;;;6.70;99.90;;;;;;5074240;28;20231;-67
2022/01/29 09:39:50;;;;;;;8.88;6.00;;;6.80;99.90;;;;;;5074109;28;20198;-67
2022/01/29 09:42:17;;;;;;;6.78;5.53;;;7.00;99.90;;;;;;5074017;28;20205;-67
2022/01/29 09:44:45;;;;;;;7.00;5.00;;;7.20;99.90;;;;;;5073909;28;20237;-67
2022/01/29 09:47:16;;;;;;;5.55;5.05;;;7.30;99.90;;;;;;5074838;28;20611;-67
2022/01/29 09:49:43;;;;;;;6.22;4.82;;;7.40;99.90;;;;;;5073966;28;20213;-67
2022/01/29 09:52:10;;;;;;;6.15;5.55;;;7.50;99.90;;;;;;5074035;28;20207;-67
2022/01/29 09:54:37;;;;;;;6.97;5.20;;;7.60;99.90;;;;;;5073889;28;20226;-66
2022/01/29 09:57:04;;;;;;;9.10;6.80;;;7.60;99.90;;;;;;5073959;28;20231;-67
2022/01/29 09:59:31;;;;;;;6.20;4.82;;;7.50;99.90;;;;;;5073914;28;20558;-67
2022/01/29 10:01:58;;;;;;;6.10;5.50;;;7.60;99.90;;;;;;5073726;28;20234;-67
2022/01/29 10:04:29;;;;;;;7.05;5.05;;;7.50;99.90;;;;;;5073620;28;20232;-67
2022/01/29 10:07:14;;;;;;;6.32;4.03;;;7.60;99.90;;;;;;5073807;28;20187;-67
2022/01/29 10:09:41;;;;;;;6.85;4.57;;;7.70;99.90;;;;;;5073554;28;20653;-67
2022/01/29 10:12:20;;;;;;;6.10;4.70;;;7.80;99.90;;;;;;5073790;28;20199;-67
2022/01/29 10:14:49;;;;;;;6.35;4.63;;;7.80;99.90;;;;;;5073616;28;20233;-67
2022/01/29 10:17:42;;;;;;;5.25;4.30;;;7.80;99.90;;;;;;5073517;28;20223;-67
2022/01/29 10:20:14;;;;;;;8.18;4.90;;;7.80;99.90;;;;;;5073425;28;20576;-67
2022/01/29 10:22:41;;;;;;;4.97;4.25;;;7.80;99.90;;;;;;5074645;28;20623;-67
2022/01/29 10:25:12;;;;;;;9.80;6.78;;;7.80;99.90;;;;;;5071736;28;20230;-67
2022/01/29 10:27:39;;;;;;;6.43;4.60;;;7.90;99.90;;;;;;5060870;28;20206;-67
2022/01/29 10:30:10;;;;;;;5.93;4.90;;;7.90;99.90;;;;;;5072330;28;20301;-67
2022/01/29 10:32:37;;;;;;;5.65;4.85;;;7.80;99.90;;;;;;5072208;28;20607;-67
2022/01/29 10:35:04;;;;;;;5.35;4.85;;;7.80;99.90;;;;;;5072538;28;20233;-67
2022/01/29 10:37:32;;;;;;;10.00;4.50;;;7.80;99.90;;;;;;5071999;28;20227;-66
2022/01/29 10:40:01;;;;;;;6.57;5.40;;;7.90;99.90;;;;;;5071954;28;20203;-66
2022/01/29 10:42:31;;;;;;;5.65;4.90;;;8.00;99.90;;;;;;5072095;28;20206;-66
2022/01/29 10:45:02;;;;;;;6.75;5.63;;;8.00;99.90;;;;;;5072129;28;20708;-67
2022/01/29 10:47:29;;;;;;;6.13;5.40;;;8.10;99.90;;;;;;5071718;28;20199;-67
2022/01/29 10:49:59;;;;;;;7.18;4.85;;;8.30;99.90;;;;;;5071708;28;20203;-69
2022/01/29 10:52:29;;;;;;;5.50;4.53;;;8.50;99.90;;;;;;5072254;28;20574;-70
2022/01/29 10:55:00;;;;;;;7.10;4.43;;;8.60;99.90;;;;;;5073340;28;20225;-70
2022/01/29 10:57:32;;;;;;;6.75;5.05;;;8.60;99.90;;;;;;5075918;28;20245;-74
2022/01/29 10:59:59;;;;;;;4.35;3.72;;;8.50;99.90;;;;;;5075408;28;20194;-73
2022/01/29 11:02:30;;;;;;;4.35;3.92;;;8.60;99.90;;;;;;5075854;28;20576;-72
2022/01/29 11:04:57;;;;;;;5.07;4.50;;;8.60;99.90;;;;;;5075945;28;20566;-69
2022/01/29 11:07:28;;;;;;;5.05;4.55;;;8.60;99.90;;;;;;5075773;28;20207;-71
2022/01/29 11:09:55;;;;;;;5.00;4.50;;;8.70;99.90;;;;;;5075392;28;20203;-68
2022/01/29 11:12:28;;;;;;;4.70;3.53;;;8.70;99.90;;;;;;5075514;28;20546;-67
2022/01/29 11:14:58;;;;;;;6.25;4.07;;;8.50;99.90;;;;;;5075809;28;20246;-67
2022/01/29 11:17:26;;;;;;;3.90;3.50;;;8.50;99.90;;;;;;5075402;28;20800;-68
2022/01/29 11:19:53;;;;;;;3.17;2.88;;;8.40;99.90;;;;;;5075324;28;20634;-68
2022/01/29 11:22:24;;;;;;;3.40;3.10;;;8.40;99.90;;;;;;5075135;28;20203;-68
2022/01/29 11:24:57;;;;;;;3.00;2.70;;;8.30;99.90;;;;;;5075409;28;20229;-68
2022/01/29 11:27:27;;;;;;;3.70;2.95;;;8.30;99.90;;;;;;5075790;28;20290;-67
2022/01/29 11:30:07;;;;;;;3.58;2.30;;;8.30;99.90;;;;;;5075010;28;20635;-67
2022/01/29 11:32:38;;;;;;;3.67;3.28;;;8.30;99.90;;;;;;5075285;28;20290;-67
2022/01/29 11:35:21;;;;;;;3.13;2.85;;;8.30;99.90;;;;;;5075301;28;20253;-67
2022/01/29 11:37:51;;;;;;;3.20;2.90;;;8.30;99.90;;;;;;5075364;28;20227;-68
2022/01/29 11:40:20;;;;;;;3.75;3.20;;;8.40;99.90;;;;;;5074913;28;20207;-68
2022/01/29 11:43:04;;;;;;;2.78;2.58;;;8.50;99.90;;;;;;5075560;28;20202;-68
2022/01/29 11:45:46;;;;;;;3.13;2.85;;;8.50;99.90;;;;;;5074714;28;20230;-67
2022/01/29 11:48:50;;;;;;;3.35;3.05;;;8.50;99.90;;;;;;5075173;28;20199;-68
2022/01/29 11:51:47;;;;;;;2.78;2.38;;;8.50;99.90;;;;;;5074812;28;20207;-68
2022/01/29 11:54:17;;;;;;;2.90;2.38;;;8.60;99.90;;;;;;5074942;28;20233;-67
2022/01/29 11:56:45;;;;;;;2.95;2.65;;;8.50;99.90;;;;;;5075002;28;20223;-67
2022/01/29 11:59:33;;;;;;;3.35;2.72;;;8.50;99.90;;;;;;5074856;28;20210;-67
2022/01/29 12:02:02;;;;;;;3.17;2.88;;;8.50;99.90;;;;;;5074837;28;20207;-68
2022/01/29 12:05:10;;;;;;;2.80;2.60;;;8.40;99.90;;;;;;5075412;28;20574;-67
2022/01/29 12:08:12;;;;;;;3.88;2.72;;;8.40;99.90;;;;;;5074350;28;20195;-67
2022/01/29 12:10:52;;;;;;;3.22;2.72;;;8.50;99.90;;;;;;5073966;28;20206;-67
2022/01/29 12:13:19;;;;;;;3.92;3.03;;;8.40;99.90;;;;;;5074622;28;20207;-66
2022/01/29 12:15:47;;;;;;;4.25;2.55;;;8.40;99.90;;;;;;5074394;28;20233;-66
2022/01/29 12:18:33;;;;;;;3.85;3.10;;;8.30;99.90;;;;;;5073996;28;20229;-66
2022/01/29 12:21:00;;;;;;;4.35;2.80;;;8.30;99.90;;;;;;5073919;28;20642;-67
2022/01/29 12:23:28;;;;;;;3.72;3.10;;;8.40;99.90;;;;;;5074594;28;20298;-66
2022/01/29 12:25:56;;;;;;;3.60;3.00;;;8.30;99.90;;;;;;5074583;28;20756;-66
2022/01/29 12:28:23;;;;;;;4.18;3.22;;;8.40;99.90;;;;;;5074077;28;20692;-66
2022/01/29 12:30:52;;;;;;;3.55;2.75;;;8.40;99.90;;;;;;5074343;28;20241;-66
2022/01/29 12:33:21;;;;;;;3.58;2.78;;;8.40;99.90;;;;;;5074680;28;20572;-66
2022/01/29 12:35:51;;;;;;;3.95;2.90;;;8.40;99.90;;;;;;5074079;28;20731;-66
2022/01/29 12:38:23;;;;;;;4.63;2.90;;;8.40;99.90;;;;;;5074916;28;20226;-66
2022/01/29 12:40:56;;;;;;;3.50;2.90;;;8.40;99.90;;;;;;5074511;28;20576;-66
2022/01/29 12:43:26;;;;;;;2.55;2.35;;;8.50;99.90;;;;;;5074083;28;20202;-67
2022/01/29 12:45:54;;;;;;;3.47;2.92;;;8.40;99.90;;;;;;5073552;28;20233;-67
2022/01/29 12:48:22;;;;;;;3.40;2.83;;;8.50;99.90;;;;;;5073871;28;20202;-66
2022/01/29 12:50:48;;;;;;;3.00;2.50;;;8.50;99.90;;;;;;5074273;28;20241;-67
2022/01/29 12:53:17;;;;;;;3.83;2.35;;;8.50;99.90;;;;;;5075058;28;20645;-67
2022/01/29 12:55:44;;;;;;;3.22;2.30;;;8.40;99.90;;;;;;5075053;28;20223;-67
2022/01/29 12:58:11;;;;;;;3.03;2.30;;;8.40;99.90;;;;;;5074838;28;20229;-67
2022/01/29 13:00:38;;;;;;;3.22;2.38;;;8.40;99.90;;;;;;5074677;28;20289;-67
2022/01/29 13:03:09;;;;;;;2.60;2.38;;;8.40;99.90;;;;;;5074595;28;20210;-67
2022/01/29 13:05:44;;;;;;;2.72;2.30;;;8.40;99.90;;;;;;5074450;28;20739;-66
2022/01/29 13:08:12;;;;;;;3.00;2.75;;;8.40;99.90;;;;;;5074684;28;20194;-66